Time;durP1;ratioP1;P1;durP2;ratioP2;P2;SDS_P1;SDS_P2;PMS_P1;PMS_P2;Temp;Humidity;BMP_temperature;BMP_pressure;BME280_temperature;BME280_humidity;BME280_pressure;Samples;Min_cycle;Max_cycle;Signal;HPM_P1;HPM_P2
2021/07/05 00:01:14;;;;;;;2.67;1.02;;;;;;;14.85;100.00;99451.72;4979187;28;20501;-71
2021/07/05 00:03:41;;;;;;;1.35;0.90;;;;;;;14.80;100.00;99458.41;4979637;28;20055;-71
2021/07/05 00:06:08;;;;;;;1.00;0.88;;;;;;;14.77;100.00;99452.44;4979200;28;20344;-72
2021/07/05 00:08:35;;;;;;;1.83;0.85;;;;;;;14.73;100.00;99451.84;4978146;28;20392;-70
2021/07/05 00:11:03;;;;;;;3.15;1.40;;;;;;;14.72;100.00;99458.22;4978309;28;20054;-72
2021/07/05 00:13:31;;;;;;;2.00;1.00;;;;;;;14.70;100.00;99453.97;4978802;28;20121;-71
2021/07/05 00:15:59;;;;;;;2.22;1.00;;;;;;;14.70;100.00;99457.47;4983087;28;20058;-73
2021/07/05 00:18:25;;;;;;;4.53;1.10;;;;;;;14.67;100.00;99458.59;4980646;28;20050;-70
2021/07/05 00:20:52;;;;;;;2.83;1.00;;;;;;;14.69;100.00;99450.41;4991122;28;20145;-72
2021/07/05 00:23:19;;;;;;;3.38;1.00;;;;;;;14.66;100.00;99435.41;5000093;28;20432;-71
2021/07/05 00:25:46;;;;;;;2.33;0.90;;;;;;;14.71;100.00;99439.53;4998558;28;20058;-70
2021/07/05 00:28:13;;;;;;;2.10;1.00;;;;;;;14.66;100.00;99429.22;4997438;28;20046;-70
2021/07/05 00:30:40;;;;;;;3.15;1.02;;;;;;;14.78;100.00;99444.22;4998533;28;20050;-71
2021/07/05 00:33:07;;;;;;;1.70;0.95;;;;;;;14.83;100.00;99434.91;4998130;28;20436;-72
2021/07/05 00:35:36;;;;;;;2.90;1.10;;;;;;;14.85;100.00;99443.69;4998190;28;20057;-71
2021/07/05 00:38:02;;;;;;;3.08;0.90;;;;;;;14.82;100.00;99439.44;4998073;28;20047;-70
2021/07/05 00:40:30;;;;;;;2.13;1.10;;;;;;;14.83;100.00;99441.16;4998208;28;20054;-71
2021/07/05 00:42:58;;;;;;;2.45;0.75;;;;;;;14.78;100.00;99428.09;4998035;28;20058;-69
2021/07/05 00:45:27;;;;;;;1.30;1.10;;;;;;;14.77;100.00;99429.09;4980983;28;20050;-71
2021/07/05 00:47:54;;;;;;;1.90;1.10;;;;;;;14.78;100.00;99425.44;4997161;28;20396;-72
2021/07/05 00:50:24;;;;;;;3.33;1.38;;;;;;;14.74;100.00;99426.72;4997887;28;20061;-71
2021/07/05 00:52:53;;;;;;;4.55;1.10;;;;;;;14.73;100.00;99430.34;4998219;28;20444;-71
2021/07/05 00:55:21;;;;;;;1.10;0.80;;;;;;;14.76;100.00;99427.41;4996864;28;20046;-71
2021/07/05 00:57:48;;;;;;;3.97;1.02;;;;;;;14.76;100.00;99427.41;4997854;28;20408;-72
2021/07/05 01:00:18;;;;;;;2.08;0.90;;;;;;;14.81;100.00;99427.00;4997779;28;20054;-72
2021/07/05 01:02:45;;;;;;;2.92;0.95;;;;;;;14.86;100.00;99426.59;4997892;28;20050;-72
2021/07/05 01:05:14;;;;;;;3.88;1.20;;;;;;;14.96;100.00;99427.44;4997697;28;20093;-69
2021/07/05 01:07:41;;;;;;;4.65;1.30;;;;;;;15.02;100.00;99428.69;4997557;28;20101;-71
2021/07/05 01:10:09;;;;;;;5.45;1.02;;;;;;;15.05;100.00;99423.91;4997821;28;20146;-70
2021/07/05 01:12:38;;;;;;;5.32;2.13;;;;;;;15.10;100.00;99415.44;4997665;28;20050;-71
2021/07/05 01:15:08;;;;;;;4.53;1.00;;;;;;;15.17;100.00;99442.56;4996851;28;20061;-72
2021/07/05 01:17:34;;;;;;;2.53;1.13;;;;;;;15.16;100.00;99439.03;4997678;28;20120;-70
2021/07/05 01:20:03;;;;;;;4.40;1.20;;;;;;;15.19;100.00;99436.06;4990952;28;20125;-71
2021/07/05 01:22:30;;;;;;;2.75;1.08;;;;;;;15.21;100.00;99433.25;4978159;28;20059;-69
2021/07/05 01:24:57;;;;;;;2.83;1.10;;;;;;;15.24;100.00;99432.97;4977799;28;20353;-71
2021/07/05 01:27:24;;;;;;;4.18;1.20;;;;;;;15.32;100.00;99426.88;4977932;28;20055;-72
2021/07/05 01:29:51;;;;;;;2.00;1.05;;;;;;;15.28;100.00;99425.44;4976855;28;20050;-71
2021/07/05 01:32:18;;;;;;;2.58;1.48;;;;;;;15.20;100.00;99418.13;4977977;28;20047;-71
2021/07/05 01:34:44;;;;;;;2.88;1.23;;;;;;;15.11;100.00;99406.38;4977877;28;20051;-72
2021/07/05 01:37:11;;;;;;;1.80;1.20;;;;;;;15.12;100.00;99407.22;4977700;28;20054;-71
2021/07/05 01:39:39;;;;;;;6.10;1.33;;;;;;;15.05;100.00;99402.41;4977795;28;20376;-70
2021/07/05 01:42:07;;;;;;;5.95;1.90;;;;;;;15.03;100.00;99408.94;4977741;28;20112;-72
2021/07/05 01:44:34;;;;;;;2.58;1.45;;;;;;;15.03;100.00;99411.63;4977384;28;20495;-73
2021/07/05 01:47:00;;;;;;;2.83;1.35;;;;;;;15.06;100.00;99414.00;4977365;28;20455;-73
2021/07/05 01:49:27;;;;;;;4.57;1.50;;;;;;;15.05;100.00;99397.03;4977500;28;20051;-74
2021/07/05 01:51:54;;;;;;;2.85;1.40;;;;;;;15.07;100.00;99405.81;4977346;28;20058;-73
2021/07/05 01:54:21;;;;;;;3.28;1.40;;;;;;;15.08;100.00;99409.34;4977449;28;20050;-70
2021/07/05 01:56:48;;;;;;;4.60;1.70;;;;;;;15.09;100.00;99402.97;4977112;28;20103;-71
2021/07/05 01:59:34;;;;;;;2.28;1.55;;;;;;;15.04;100.00;99400.69;4975321;28;20137;-72
2021/07/05 02:02:04;;;;;;;3.42;1.10;;;;;;;15.14;100.00;99403.38;4977084;28;20504;-71
2021/07/05 02:04:31;;;;;;;4.05;1.60;;;;;;;15.14;100.00;99416.00;4977489;28;20051;-70
2021/07/05 02:06:58;;;;;;;2.22;1.42;;;;;;;15.13;100.00;99420.50;4977021;28;20059;-70
2021/07/05 02:09:24;;;;;;;3.83;1.40;;;;;;;15.14;100.00;99411.44;4976908;28;20051;-70
2021/07/05 02:11:51;;;;;;;2.97;1.38;;;;;;;15.17;100.00;99410.31;4976944;28;20078;-71
2021/07/05 02:14:17;;;;;;;2.20;1.30;;;;;;;15.20;100.00;99415.44;4976780;28;20113;-72
2021/07/05 02:16:44;;;;;;;3.80;1.80;;;;;;;15.18;100.00;99407.50;4976066;28;20145;-71
2021/07/05 02:19:11;;;;;;;8.43;1.67;;;;;;;15.16;100.00;99405.94;4976817;28;20051;-72
2021/07/05 02:21:37;;;;;;;3.75;1.40;;;;;;;15.12;100.00;99409.91;4994681;28;20070;-71
2021/07/05 02:24:04;;;;;;;3.25;1.48;;;;;;;15.10;100.00;99414.56;4996409;28;20058;-71
2021/07/05 02:26:31;;;;;;;1.92;1.10;;;;;;;15.03;100.00;99420.50;4996149;28;20046;-71
2021/07/05 02:28:57;;;;;;;3.22;0.90;;;;;;;14.92;100.00;99417.94;4995768;28;20097;-70
2021/07/05 02:31:24;;;;;;;1.23;0.73;;;;;;;14.86;100.00;99429.28;4996281;28;20125;-72
2021/07/05 02:33:52;;;;;;;1.08;0.95;;;;;;;14.67;100.00;99425.53;4995978;28;20054;-72
2021/07/05 02:36:18;;;;;;;2.35;0.90;;;;;;;14.53;100.00;99429.44;4996246;28;20058;-71
2021/07/05 02:38:47;;;;;;;1.30;1.15;;;;;;;14.35;100.00;99416.69;4994962;28;20054;-71
2021/07/05 02:41:14;;;;;;;3.25;0.95;;;;;;;14.45;100.00;99431.97;4996386;28;20081;-72
2021/07/05 02:43:41;;;;;;;1.67;1.20;;;;;;;14.41;100.00;99436.78;4994781;28;20440;-70
2021/07/05 02:46:08;;;;;;;1.65;1.27;;;;;;;14.34;100.00;99428.41;4996317;28;20050;-70
2021/07/05 02:48:35;;;;;;;1.73;1.17;;;;;;;14.33;100.00;99428.56;4996339;28;20050;-70
2021/07/05 02:51:05;;;;;;;1.80;1.20;;;;;;;14.35;100.00;99443.53;4997198;28;20356;-72
2021/07/05 02:53:32;;;;;;;5.33;1.27;;;;;;;14.38;100.00;99451.31;4994798;28;20057;-72
2021/07/05 02:55:59;;;;;;;1.98;1.42;;;;;;;14.33;100.00;99453.56;4995793;28;20104;-71
2021/07/05 02:58:25;;;;;;;1.52;1.20;;;;;;;14.31;100.00;99449.28;4994913;28;20082;-72
2021/07/05 03:00:56;;;;;;;1.00;0.93;;;;;;;14.31;100.00;99454.66;4995823;28;20431;-71
2021/07/05 03:03:22;;;;;;;1.30;1.20;;;;;;;14.31;100.00;99463.59;4995716;28;20089;-72
2021/07/05 03:05:50;;;;;;;3.85;1.10;;;;;;;14.34;100.00;99468.66;4995629;28;20401;-70
2021/07/05 03:08:17;;;;;;;1.20;1.10;;;;;;;14.23;100.00;99469.63;4995682;28;20050;-71
2021/07/05 03:10:45;;;;;;;1.20;1.10;;;;;;;14.20;100.00;99469.91;4995114;28;20054;-73
2021/07/05 03:13:15;;;;;;;2.83;1.35;;;;;;;14.25;100.00;99482.91;4995594;28;20105;-71
2021/07/05 03:15:43;;;;;;;1.10;0.80;;;;;;;14.15;100.00;99488.22;4995490;28;20403;-70
2021/07/05 03:18:10;;;;;;;3.65;1.20;;;;;;;14.01;100.00;99488.56;4995809;28;20065;-69
2021/07/05 03:20:41;;;;;;;0.90;0.90;;;;;;;13.99;100.00;99486.88;4985031;28;20326;-71
2021/07/05 03:23:09;;;;;;;1.08;0.80;;;;;;;13.91;100.00;99494.75;4976042;28;20114;-72
2021/07/05 03:25:37;;;;;;;2.72;1.10;;;;;;;13.85;100.00;99493.41;4975172;28;20101;-71
2021/07/05 03:28:05;;;;;;;2.85;0.90;;;;;;;13.80;100.00;99494.81;4975013;28;20054;-71
2021/07/05 03:30:36;;;;;;;2.28;1.00;;;;;;;13.78;100.00;99502.97;4976034;28;20058;-71
2021/07/05 03:33:04;;;;;;;;;;;;;;;13.70;100.00;99497.41;4976797;28;20054;-71
2021/07/05 03:35:31;;;;;;;2.33;0.80;;;;;;;13.69;100.00;99503.78;4975817;28;19977;-70
2021/07/05 03:37:58;;;;;;;2.20;1.05;;;;;;;13.59;100.00;99479.56;4976092;28;20061;-71
2021/07/05 03:40:29;;;;;;;1.60;1.10;;;;;;;13.63;100.00;99497.09;4975931;28;20059;-72
2021/07/05 03:42:56;;;;;;;1.00;1.00;;;;;;;13.60;100.00;99493.81;4975879;28;20051;-72
2021/07/05 03:45:29;;;;;;;1.67;1.20;;;;;;;13.58;100.00;99497.47;4974743;28;20343;-72
2021/07/05 03:47:57;;;;;;;1.85;1.35;;;;;;;13.61;100.00;99493.69;4975795;28;20121;-70
2021/07/05 03:50:25;;;;;;;4.38;1.60;;;;;;;13.64;100.00;99496.13;4975573;28;20466;-70
2021/07/05 03:52:52;;;;;;;4.88;1.60;;;;;;;13.68;100.00;99494.84;4974915;28;20198;-72
2021/07/05 03:55:26;;;;;;;4.45;1.38;;;;;;;13.69;100.00;99491.19;4975832;28;20055;-72
2021/07/05 03:57:54;;;;;;;3.83;1.40;;;;;;;13.63;100.00;99481.03;4975834;28;20074;-71
2021/07/05 04:00:24;;;;;;;2.95;1.77;;;;;;;13.68;100.00;99489.50;4975631;28;20054;-72
2021/07/05 04:02:51;;;;;;;5.50;2.00;;;;;;;13.67;100.00;99493.16;4975677;28;20047;-71
2021/07/05 04:05:18;;;;;;;7.47;2.58;;;;;;;13.69;100.00;99491.19;4975423;28;20106;-70
2021/07/05 04:07:45;;;;;;;2.15;1.90;;;;;;;13.71;100.00;99499.13;4974507;28;20054;-72
2021/07/05 04:10:13;;;;;;;3.67;1.55;;;;;;;13.68;100.00;99484.13;4975458;28;20046;-69
2021/07/05 04:12:40;;;;;;;3.35;2.75;;;;;;;13.73;100.00;99489.09;4975446;28;20499;-71
2021/07/05 04:15:09;;;;;;;4.32;2.15;;;;;;;13.71;100.00;99481.22;4975373;28;20459;-71
2021/07/05 04:17:35;;;;;;;3.42;2.20;;;;;;;13.74;100.00;99487.28;4975410;28;20400;-71
2021/07/05 04:20:06;;;;;;;4.15;2.13;;;;;;;13.68;100.00;99486.81;4979729;28;20077;-71
2021/07/05 04:22:33;;;;;;;4.88;2.10;;;;;;;13.66;100.00;99475.38;4997181;28;20108;-72
2021/07/05 04:25:00;;;;;;;9.55;2.33;;;;;;;13.73;100.00;99489.09;4998368;28;20085;-70
2021/07/05 04:27:26;;;;;;;6.68;2.05;;;;;;;13.73;100.00;99485.59;4996899;28;20085;-71
2021/07/05 04:29:53;;;;;;;3.50;1.98;;;;;;;13.73;100.00;99497.16;4997732;28;20475;-70
2021/07/05 04:32:20;;;;;;;4.30;2.00;;;;;;;13.70;100.00;99495.59;4998240;28;20348;-71
2021/07/05 04:34:48;;;;;;;6.72;2.28;;;;;;;13.64;100.00;99488.06;4988328;28;20436;-70
2021/07/05 04:37:15;;;;;;;5.38;2.38;;;;;;;13.57;100.00;99478.84;4978877;28;20050;-71
2021/07/05 04:39:42;;;;;;;6.50;2.60;;;;;;;13.62;100.00;99476.59;4978596;28;20097;-70
2021/07/05 04:42:09;;;;;;;6.00;2.35;;;;;;;13.66;100.00;99478.06;4977860;28;20058;-70
2021/07/05 04:44:36;;;;;;;6.20;2.90;;;;;;;13.73;100.00;99470.31;4978595;28;20059;-71
2021/07/05 04:47:03;;;;;;;3.88;2.58;;;;;;;13.75;100.00;99467.53;4978516;28;20084;-72
2021/07/05 04:49:30;;;;;;;3.38;2.90;;;;;;;13.73;100.00;99464.13;4978683;28;20043;-69
2021/07/05 04:51:57;;;;;;;4.47;2.75;;;;;;;13.76;100.00;99470.09;4978268;28;20058;-72
2021/07/05 04:54:24;;;;;;;3.35;2.90;;;;;;;13.66;100.00;99443.19;4977688;28;20112;-70
2021/07/05 04:56:51;;;;;;;14.10;3.60;;;;;;;13.79;100.00;99458.25;4978221;28;20050;-70
2021/07/05 04:59:18;;;;;;;6.13;3.20;;;;;;;13.86;100.00;99454.06;4978221;28;20050;-69
2021/07/05 05:01:46;;;;;;;4.88;3.15;;;;;;;13.84;100.00;99450.66;4978391;28;20050;-70
2021/07/05 05:04:14;;;;;;;8.60;3.33;;;;;;;13.87;100.00;99450.38;4978233;28;20121;-72
2021/07/05 05:06:41;;;;;;;4.47;3.35;;;;;;;13.86;100.00;99443.31;4979498;28;20143;-75
2021/07/05 05:09:08;;;;;;;8.40;3.83;;;;;;;13.91;100.00;99446.47;4996701;28;20050;-78
2021/07/05 05:11:35;;;;;;;9.35;3.70;;;;;;;13.93;100.00;99427.53;4999215;28;20055;-70
2021/07/05 05:14:01;;;;;;;9.25;3.30;;;;;;;13.95;100.00;99436.31;5001924;28;20050;-76
2021/07/05 05:16:28;;;;;;;6.25;3.13;;;;;;;13.97;100.00;99435.19;5015712;28;20077;-72
2021/07/05 05:18:55;;;;;;;7.28;3.30;;;;;;;13.94;100.00;99424.72;4999864;28;20095;-72
2021/07/05 05:21:22;;;;;;;9.27;3.33;;;;;;;13.98;100.00;99434.22;4997772;28;20058;-73
2021/07/05 05:23:48;;;;;;;7.50;3.70;;;;;;;13.97;100.00;99435.19;4997593;28;20057;-71
2021/07/05 05:26:15;;;;;;;12.07;4.40;;;;;;;13.96;100.00;99438.84;4997720;28;20112;-72
2021/07/05 05:28:42;;;;;;;5.20;3.17;;;;;;;13.91;100.00;99427.69;4997578;28;20062;-74
2021/07/05 05:31:09;;;;;;;9.63;3.70;;;;;;;13.91;100.00;99416.09;4997443;28;20054;-72
2021/07/05 05:33:36;;;;;;;9.10;4.03;;;;;;;13.88;100.00;99419.06;5012215;28;20058;-73
2021/07/05 05:36:03;;;;;;;6.78;3.65;;;;;;;14.09;100.00;99437.78;4997369;28;20061;-72
2021/07/05 05:38:30;;;;;;;8.32;3.80;;;;;;;14.19;100.00;99444.03;4997422;28;20058;-72
2021/07/05 05:41:01;;;;;;;9.40;3.60;;;;;;;14.10;100.00;99436.78;4997352;28;20050;-76
2021/07/05 05:43:28;;;;;;;7.75;4.32;;;;;;;14.11;100.00;99450.06;4996328;28;20108;-72
2021/07/05 05:46:00;;;;;;;8.85;4.25;;;;;;;14.08;100.00;99446.81;5012095;28;20050;-73
2021/07/05 05:48:28;;;;;;;7.72;4.00;;;;;;;14.13;100.00;99450.78;4995681;28;20072;-71
2021/07/05 05:50:55;;;;;;;8.52;3.63;;;;;;;14.19;100.00;99446.72;4995572;28;20073;-72
2021/07/05 05:53:22;;;;;;;6.82;3.83;;;;;;;14.19;100.00;99449.41;5011248;28;20050;-70
2021/07/05 05:55:49;;;;;;;6.43;3.60;;;;;;;14.28;100.00;99446.91;4979109;28;20054;-72
2021/07/05 05:58:16;;;;;;;6.05;3.60;;;;;;;14.33;100.00;99460.78;4996497;28;20051;-74
2021/07/05 06:00:43;;;;;;;7.35;3.10;;;;;;;14.30;100.00;99451.16;4996226;28;20108;-73
2021/07/05 06:03:10;;;;;;;6.50;3.33;;;;;;;14.39;100.00;99454.88;4996400;28;20096;-73
2021/07/05 06:05:37;;;;;;;7.75;3.83;;;;;;;14.52;100.00;99439.38;4996897;28;20094;-72
2021/07/05 06:08:04;;;;;;;5.95;3.33;;;;;;;14.44;100.00;99439.16;4996584;28;20106;-70
2021/07/05 06:10:31;;;;;;;5.65;3.08;;;;;;;14.48;100.00;99451.34;4996834;28;20427;-70
2021/07/05 06:12:58;;;;;;;10.20;3.30;;;;;;;14.23;100.00;99405.19;4996929;28;20150;-71
2021/07/05 06:15:24;;;;;;;7.10;3.42;;;;;;;14.50;100.00;99453.91;4995600;28;20050;-74
2021/07/05 06:17:58;;;;;;;8.10;3.10;;;;;;;14.59;100.00;99447.69;4996712;28;20081;-71
2021/07/05 06:20:25;;;;;;;4.85;2.88;;;;;;;14.58;100.00;99453.19;4996046;28;20059;-73
2021/07/05 06:23:17;;;;;;;9.52;2.92;;;;;;;14.61;100.00;99458.31;4996277;28;20054;-71
2021/07/05 06:25:45;;;;;;;9.50;2.95;;;;;;;14.60;100.00;99443.19;4996462;28;20415;-72
2021/07/05 06:28:12;;;;;;;4.57;2.83;;;;;;;14.64;100.00;99441.91;4996528;28;20046;-74
2021/07/05 06:30:39;;;;;;;6.28;3.00;;;;;;;14.57;100.00;99441.63;4996104;28;20101;-74
2021/07/05 06:33:05;;;;;;;9.32;2.72;;;;;;;14.53;100.00;99445.56;4995399;28;20057;-72
2021/07/05 06:35:32;;;;;;;7.88;2.80;;;;;;;14.55;100.00;99450.81;4995040;28;20321;-71
2021/07/05 06:37:59;;;;;;;5.07;3.13;;;;;;;14.63;100.00;99445.59;4996361;28;20386;-72
2021/07/05 06:40:27;;;;;;;7.28;2.80;;;;;;;14.67;100.00;99453.22;4995178;28;20053;-71
2021/07/05 06:42:54;;;;;;;9.25;2.88;;;;;;;14.66;100.00;99456.91;4996120;28;20046;-74
2021/07/05 06:45:20;;;;;;;7.15;2.80;;;;;;;14.78;100.00;99462.19;4994584;28;20054;-71
2021/07/05 06:47:47;;;;;;;5.50;2.28;;;;;;;14.68;100.00;99462.16;4995031;28;20348;-73
2021/07/05 06:50:14;;;;;;;8.20;2.67;;;;;;;14.65;100.00;99459.72;4996222;28;20454;-70
2021/07/05 06:52:41;;;;;;;7.03;2.38;;;;;;;14.72;100.00;99468.94;4994786;28;20046;-72
2021/07/05 06:55:08;;;;;;;7.75;3.10;;;;;;;14.80;100.00;99466.44;4995252;28;20119;-70
2021/07/05 06:57:35;;;;;;;8.50;2.55;;;;;;;14.86;100.00;99467.72;4996079;28;20419;-70
2021/07/05 07:00:10;;;;;;;7.43;2.67;;;;;;;14.89;100.00;99469.28;4995987;28;20093;-72
2021/07/05 07:02:38;;;;;;;6.88;2.33;;;;;;;15.01;100.00;99467.31;4995734;28;20054;-73
2021/07/05 07:05:10;;;;;;;9.27;3.03;;;;;;;15.02;100.00;99472.56;4995938;28;20062;-71
2021/07/05 07:07:38;;;;;;;6.82;2.70;;;;;;;14.97;100.00;99463.22;4995675;28;20104;-72
2021/07/05 07:10:07;;;;;;;6.07;2.40;;;;;;;15.01;100.00;99465.50;4995618;28;20340;-71
2021/07/05 07:12:38;;;;;;;6.03;2.38;;;;;;;15.02;100.00;99472.56;4994823;28;20100;-72
2021/07/05 07:15:07;;;;;;;7.57;2.58;;;;;;;15.06;100.00;99462.38;4995752;28;20494;-74
2021/07/05 07:17:39;;;;;;;8.35;2.30;;;;;;;15.12;99.47;99469.03;4995796;28;20100;-71
2021/07/05 07:20:10;;;;;;;10.48;2.75;;;;;;;15.17;99.55;99458.72;4989620;28;20146;-73
2021/07/05 07:22:38;;;;;;;6.88;2.35;;;;;;;15.18;100.00;99455.03;4975965;28;20066;-72
2021/07/05 07:25:07;;;;;;;7.00;2.17;;;;;;;15.24;99.95;99465.22;4976023;28;20066;-73
2021/07/05 07:27:34;;;;;;;7.07;2.30;;;;;;;15.33;99.37;99468.91;4976170;28;20113;-71
2021/07/05 07:30:01;;;;;;;8.10;2.28;;;;;;;15.34;99.66;99468.75;4975971;28;20065;-72
2021/07/05 07:32:28;;;;;;;7.95;2.25;;;;;;;15.31;99.41;99469.03;4976045;28;20074;-72
2021/07/05 07:34:55;;;;;;;10.50;2.78;;;;;;;15.37;97.95;99469.47;4976021;28;20078;-72
2021/07/05 07:37:22;;;;;;;3.63;2.40;;;;;;;15.37;97.75;99464.94;4974764;28;20059;-72
2021/07/05 07:39:56;;;;;;;7.40;2.20;;;;;;;15.37;98.10;99478.38;4976018;28;20061;-72
2021/07/05 07:42:22;;;;;;;7.70;2.05;;;;;;;15.48;97.47;99470.16;4976097;28;20103;-73
2021/07/05 07:44:49;;;;;;;10.63;2.17;;;;;;;15.41;96.51;99463.66;4976191;28;20059;-71
2021/07/05 07:47:16;;;;;;;11.25;2.55;;;;;;;15.32;98.05;99454.59;4976167;28;20348;-71
2021/07/05 07:49:42;;;;;;;4.72;1.85;;;;;;;15.46;98.36;99469.47;4975656;28;20058;-70
2021/07/05 07:52:09;;;;;;;8.93;2.60;;;;;;;15.51;96.39;99470.88;4976059;28;20050;-72
2021/07/05 07:54:36;;;;;;;5.10;2.20;;;;;;;15.46;97.74;99473.97;4974914;28;20113;-74
2021/07/05 07:57:03;;;;;;;7.82;2.50;;;;;;;15.49;97.66;99473.72;4977534;28;20174;-73
2021/07/05 07:59:29;;;;;;;5.22;2.10;;;;;;;15.53;99.32;99476.97;4979766;28;20051;-72
2021/07/05 08:01:56;;;;;;;7.65;2.40;;;;;;;15.65;99.82;99477.66;4979642;28;20105;-74
2021/07/05 08:04:23;;;;;;;8.80;2.15;;;;;;;15.69;100.00;99473.69;4979236;28;20086;-70
2021/07/05 08:06:50;;;;;;;5.32;2.00;;;;;;;15.64;97.42;99473.25;4979609;28;20097;-74
2021/07/05 08:09:17;;;;;;;8.98;2.67;;;;;;;15.64;99.54;99470.56;4978484;28;20051;-70
2021/07/05 08:11:43;;;;;;;10.23;2.10;;;;;;;15.65;95.27;99473.13;4979298;28;20051;-73
2021/07/05 08:14:10;;;;;;;6.30;2.20;;;;;;;15.66;96.93;99476.66;4978239;28;20117;-70
2021/07/05 08:16:37;;;;;;;9.25;2.25;;;;;;;15.68;95.60;99472.00;4979283;28;20101;-73
2021/07/05 08:19:04;;;;;;;5.53;2.38;;;;;;;15.69;96.24;99477.22;4979402;28;20055;-72
2021/07/05 08:21:30;;;;;;;7.18;2.17;;;;;;;15.71;91.69;99479.75;4996257;28;20498;-73
2021/07/05 08:23:57;;;;;;;5.80;1.80;;;;;;;15.65;93.29;99485.72;4997488;28;20062;-74
2021/07/05 08:26:24;;;;;;;9.88;2.33;;;;;;;15.65;98.26;99488.41;4998668;28;20109;-73
2021/07/05 08:28:51;;;;;;;4.68;1.90;;;;;;;15.62;98.64;99484.16;4997521;28;20061;-71
2021/07/05 08:31:17;;;;;;;6.88;2.20;;;;;;;15.64;97.92;99473.25;4997273;28;20050;-73
2021/07/05 08:33:47;;;;;;;6.43;2.53;;;;;;;15.67;97.27;99486.41;4998341;28;20050;-71
2021/07/05 08:36:14;;;;;;;7.15;2.10;;;;;;;15.74;95.16;99485.72;4998658;28;20055;-73
2021/07/05 08:38:40;;;;;;;9.32;2.70;;;;;;;15.79;97.13;99495.19;4997486;28;20054;-73
2021/07/05 08:41:07;;;;;;;6.60;2.30;;;;;;;15.84;94.38;99493.75;4998495;28;20125;-71
2021/07/05 08:43:36;;;;;;;4.60;1.77;;;;;;;15.85;93.51;99486.56;4998501;28;20109;-73
2021/07/05 08:46:04;;;;;;;6.93;1.90;;;;;;;15.86;95.27;99490.94;4998196;28;20054;-72
2021/07/05 08:48:38;;;;;;;8.25;2.08;;;;;;;15.87;93.06;99482.69;4998375;28;20077;-71
2021/07/05 08:51:07;;;;;;;5.10;1.83;;;;;;;15.94;94.98;99487.53;4997283;28;20062;-71
2021/07/05 08:53:34;;;;;;;7.80;2.17;;;;;;;15.97;98.64;99492.66;4997964;28;20456;-73
2021/07/05 08:56:01;;;;;;;7.15;1.88;;;;;;;15.94;94.35;99482.16;4998363;28;20092;-72
2021/07/05 08:58:28;;;;;;;6.07;2.20;;;;;;;15.94;95.67;99477.63;4997869;28;20054;-71
2021/07/05 09:00:55;;;;;;;4.30;1.90;;;;;;;16.08;95.36;99484.38;4997869;28;20054;-73
2021/07/05 09:03:23;;;;;;;4.30;1.80;;;;;;;16.28;91.19;99482.47;4998094;28;20046;-71
2021/07/05 09:06:08;;;;;;;4.93;1.70;;;;;;;16.31;87.29;99486.72;4997964;28;20105;-72
2021/07/05 09:08:38;;;;;;;6.38;2.00;;;;;;;16.21;91.49;99483.22;4997532;28;20051;-70
2021/07/05 09:11:08;;;;;;;6.07;1.67;;;;;;;16.23;89.64;99484.75;4997616;28;20275;-74
2021/07/05 09:13:50;;;;;;;2.80;1.60;;;;;;;16.17;89.94;99469.19;4997957;28;20116;-78
2021/07/05 09:16:37;;;;;;;6.50;1.85;;;;;;;16.23;85.35;99490.16;4986639;28;20133;-76
2021/07/05 09:19:19;;;;;;;5.85;1.52;;;;;;;16.25;87.81;99487.31;4987173;28;20534;-77
2021/07/05 09:21:50;;;;;;;9.23;2.33;;;;;;;16.37;88.25;99483.44;4987424;28;20082;-75
2021/07/05 09:24:31;;;;;;;9.18;2.33;;;;;;;16.54;90.44;99484.50;4987408;28;20047;-76
2021/07/05 09:27:21;;;;;;;;;;;;;;;16.62;88.65;99489.13;4989229;28;20113;-77
2021/07/05 09:29:48;;;;;;;5.88;2.05;;;;;;;16.55;88.03;99466.47;4985727;28;19933;-77
2021/07/05 09:32:29;;;;;;;6.38;1.88;;;;;;;16.75;86.77;99480.72;4988206;28;20097;-76
2021/07/05 09:34:57;;;;;;;6.00;1.70;;;;;;;16.74;85.18;99472.75;4988090;28;20054;-74
2021/07/05 09:37:27;;;;;;;6.40;2.45;;;;;;;16.92;86.18;99491.66;4986244;28;20149;-76
2021/07/05 09:40:05;;;;;;;5.35;1.63;;;;;;;17.00;83.37;99494.44;4985985;28;20065;-75
2021/07/05 09:42:36;;;;;;;4.97;1.77;;;;;;;17.05;81.59;99488.66;4985400;28;20348;-77
2021/07/05 09:45:10;;;;;;;4.38;1.70;;;;;;;17.09;84.29;99492.72;4986754;28;20046;-75
2021/07/05 09:47:37;;;;;;;3.92;1.67;;;;;;;17.04;88.46;99485.09;4985806;28;20058;-74
2021/07/05 09:50:16;;;;;;;6.57;1.63;;;;;;;16.99;84.27;99475.75;4986574;28;20053;-74
2021/07/05 09:52:44;;;;;;;4.15;1.48;;;;;;;17.07;81.71;99489.31;4986254;28;20337;-75
2021/07/05 09:55:16;;;;;;;4.40;1.40;;;;;;;17.17;77.86;99486.56;4986523;28;20065;-77
2021/07/05 09:57:54;;;;;;;3.90;1.58;;;;;;;17.24;79.38;99477.72;4986005;28;20047;-78
2021/07/05 10:00:27;;;;;;;6.25;1.65;;;;;;;17.42;77.94;99466.06;4985992;28;20046;-75
2021/07/05 10:03:08;;;;;;;6.13;1.58;;;;;;;17.64;76.76;99467.41;4986021;28;20049;-79
2021/07/05 10:05:36;;;;;;;4.88;1.38;;;;;;;17.65;78.14;99470.94;4985351;28;20128;-72
2021/07/05 10:08:14;;;;;;;4.00;1.30;;;;;;;17.73;78.87;99459.38;4986274;28;20051;-70
2021/07/05 10:10:43;;;;;;;6.60;1.45;;;;;;;17.83;75.17;99456.59;4987758;28;20070;-70
2021/07/05 10:13:20;;;;;;;2.53;1.27;;;;;;;17.88;78.28;99456.97;4986821;28;20092;-71
2021/07/05 10:15:49;;;;;;;3.85;1.30;;;;;;;17.89;77.14;99459.50;4986457;28;20053;-76
2021/07/05 10:18:18;;;;;;;5.38;1.38;;;;;;;17.91;74.28;99453.94;4985359;28;20051;-73
2021/07/05 10:20:46;;;;;;;5.40;1.10;;;;;;;17.96;74.62;99459.72;4985332;28;20058;-74
2021/07/05 10:23:16;;;;;;;3.70;1.15;;;;;;;17.86;75.63;99459.81;4986003;28;20054;-72
2021/07/05 10:25:48;;;;;;;4.25;1.50;;;;;;;17.82;72.59;99460.28;4984273;28;20429;-76
2021/07/05 10:28:16;;;;;;;5.57;1.50;;;;;;;17.71;74.14;99456.84;4985261;28;20053;-69
2021/07/05 10:30:44;;;;;;;4.95;1.58;;;;;;;17.77;75.04;99453.50;4986679;28;20440;-74
2021/07/05 10:33:11;;;;;;;2.75;1.38;;;;;;;17.89;76.46;99451.41;4986746;28;20046;-73
2021/07/05 10:35:44;;;;;;;5.03;1.40;;;;;;;18.02;78.49;99456.38;4985343;28;20297;-75
2021/07/05 10:38:24;;;;;;;5.00;1.55;;;;;;;18.22;78.43;99449.91;4986066;28;20047;-75
2021/07/05 10:40:54;;;;;;;2.20;1.33;;;;;;;18.29;77.82;99457.22;4985214;28;20050;-76
2021/07/05 10:43:42;;;;;;;5.65;1.65;;;;;;;18.12;77.11;99461.69;4985038;28;20055;-73
2021/07/05 10:46:09;;;;;;;7.57;1.17;;;;;;;18.08;79.17;99443.28;4985949;28;20425;-74
2021/07/05 10:48:39;;;;;;;6.47;1.17;;;;;;;18.15;76.86;99453.25;4988114;28;20054;-75
2021/07/05 10:51:07;;;;;;;3.63;1.13;;;;;;;18.13;75.71;99447.19;4990104;28;20065;-74
2021/07/05 10:53:44;;;;;;;4.50;1.30;;;;;;;18.19;76.97;99446.53;4996016;28;20054;-74
2021/07/05 10:56:29;;;;;;;3.88;1.30;;;;;;;18.21;76.63;99442.81;4996111;28;20420;-76
2021/07/05 10:59:13;;;;;;;2.83;1.02;;;;;;;18.37;76.27;99453.72;4998286;28;20057;-77
2021/07/05 11:01:45;;;;;;;4.05;1.13;;;;;;;18.28;78.80;99444.72;4995911;28;20054;-81
2021/07/05 11:04:25;;;;;;;4.30;1.55;;;;;;;18.30;80.75;99450.81;4994642;28;20096;-80
2021/07/05 11:06:51;;;;;;;6.05;1.23;;;;;;;18.13;83.99;99446.31;4995952;28;20069;-80
2021/07/05 11:09:23;;;;;;;4.72;1.60;;;;;;;17.84;83.40;99450.16;4997978;28;20054;-79
2021/07/05 11:11:58;;;;;;;3.58;1.60;;;;;;;17.45;84.18;99449.56;4994451;28;20054;-83
2021/07/05 11:14:28;;;;;;;4.20;1.60;;;;;;;17.28;87.21;99443.19;4996003;28;20391;-76
2021/07/05 11:17:19;;;;;;;4.95;1.70;;;;;;;17.05;87.92;99440.13;4995708;28;20100;-80
2021/07/05 11:19:47;;;;;;;;;;;;;;;16.94;88.36;99439.28;4991754;28;20063;-79
2021/07/05 11:22:36;;;;;;;3.03;1.65;;;;;;;17.00;90.97;99439.69;4975961;28;19926;-80
2021/07/05 11:25:21;;;;;;;2.67;1.80;;;;;;;16.92;89.73;99433.22;4976289;28;20360;-78
2021/07/05 11:28:02;;;;;;;6.22;1.80;;;;;;;16.76;91.17;99430.34;4976107;28;20114;-72
2021/07/05 11:30:39;;;;;;;3.75;1.83;;;;;;;16.77;94.42;99435.59;4975968;28;20070;-74
2021/07/05 11:33:06;;;;;;;4.20;1.45;;;;;;;16.77;89.57;99435.59;4978805;28;20432;-76
2021/07/05 11:35:59;;;;;;;7.40;2.17;;;;;;;16.75;91.16;99429.50;4980010;28;20492;-75
2021/07/05 11:38:33;;;;;;;4.57;1.60;;;;;;;16.67;91.67;99430.25;4980012;28;20533;-72